Shineimaru — JD2899 — position and weather

sailwx.info

Track history (hours):
 
Tides and Currents Weather Stations Pressure Air Temp Water Temp Dewpoint Dewpoint Depression Visibility Wind Speed Wind Dir Waves Ship Positions

Shineimaru

Last reported at 2018-Jan-19 16:49 UTC. Time now 2018-Jan-23 06:03 UTC.
Position N 34°60' E 140°12'.

Length 74 m; draft 4 m.

Type: Cargo ship. MMSI: 431000892.

Date/timePositionNaut miles runAvg speedWind from/ knotsBaromVisibWave heightAir tempDewpointWater temp
2018-Jan-19 16:49N 34°60' E 140°12'511.6
2018-Jan-19 16:24N 34°58' E 140°07'411.3
2018-Jan-19 16:00N 34°55' E 140°02'1211.0
2018-Jan-19 14:55N 34°52' E 139°49'510.7
2018-Jan-19 14:30N 34°51' E 139°43'511.0
2018-Jan-19 14:00N 34°50' E 139°36'711.9
2018-Jan-19 13:25N 34°50' E 139°28'512.3
2018-Jan-19 12:59N 34°49' E 139°22'612.5
2018-Jan-19 12:29N 34°46' E 139°15'712.5
2018-Jan-19 11:55N 34°42' E 139°08'512.3
2018-Jan-19 11:30N 34°39' E 139°03'611.4
2018-Jan-19 11:00N 34°36' E 138°57'612.0
2018-Jan-19 10:30N 34°34' E 138°50'611.7
2018-Jan-19 09:59N 34°34' E 138°43'611.5
2018-Jan-19 09:26N 34°33' E 138°35'511.3
2018-Jan-19 08:57N 34°33' E 138°29'611.4
2018-Jan-19 08:27N 34°33' E 138°22'511.0
2018-Jan-19 07:59N 34°33' E 138°16'510.4
2018-Jan-19 07:29N 34°32' E 138°09'811.9
2018-Jan-19 06:50N 34°32' E 137°60'6311.4
2018-Jan-19 01:19N 34°11' E 136°48'89 9.1
2018-Jan-18 15:32N 33°50' E 135°03'113.3
2018-Jan-18 15:29N 33°50' E 135°03'612.4
2018-Jan-18 15:00N 33°55' E 134°58'612.2
2018-Jan-18 14:30N 33°59' E 134°53'612.1
2018-Jan-18 14:00N 34°04' E 134°48'612.4
2018-Jan-18 13:30N 34°09' E 134°44'612.0
2018-Jan-18 13:00N 34°14' E 134°39'510.9
2018-Jan-18 12:30N 34°18' E 134°35'1 1.3
2018-Jan-18 12:00N 34°18' E 134°34'2 3.0
2018-Jan-18 11:30N 34°18' E 134°36'510.8
2018-Jan-18 11:01N 34°20' E 134°30'611.1
2018-Jan-18 10:30N 34°23' E 134°24'1010.3
2018-Jan-18 09:32N 34°24' E 134°12'110.5
2018-Jan-18 09:27N 34°25' E 134°11'  
2018-Jan-10 15:07N 34°22' E 134°23'111.6
2018-Jan-10 15:00N 34°21' E 134°25'611.6
2018-Jan-10 14:30N 34°19' E 134°31'1611.3
2018-Jan-10 13:05N 34°07' E 134°45'111.1
2018-Jan-10 12:58N 34°06' E 134°46'511.2
2018-Jan-10 12:30N 34°02' E 134°50'711.1
2018-Jan-10 11:54N 33°57' E 134°55'510.5
2018-Jan-10 11:27N 33°53' E 134°58'109 7.6
2018-Jan-09 21:03N 34°39' E 136°58'112.4
2018-Jan-09 21:00N 34°40' E 136°59'912.1
2018-Jan-09 20:16N 34°48' E 136°56'310.7
2018-Jan-09 20:00N 34°51' E 136°57'1 1.0
2018-Jan-09 19:30N 34°51' E 136°56'0 0.0
2018-Jan-09 19:00N 34°51' E 136°56'0 0.0
2018-Jan-09 18:30N 34°51' E 136°56'0 0.0
2018-Jan-09 18:00N 34°51' E 136°56'0 0.0
2018-Jan-09 17:30N 34°51' E 136°56'0 0.0
2018-Jan-09 17:00N 34°51' E 136°56'  
Track history (hours):
 
Tides and Currents Weather Stations Pressure Air Temp Water Temp Dewpoint Dewpoint Depression Visibility Wind Speed Wind Dir Waves Ship Positions

Shineimaru

Last reported at 2018-Jan-19 16:49 UTC. Time now 2018-Jan-23 06:03 UTC.
Position N 34°60' E 140°12'.

Length 74 m; draft 4 m.

Type: Cargo ship. MMSI: 431000892.

Date/timePositionNaut miles runAvg speedWind from/ knotsBaromVisibWave heightAir tempDewpointWater temp
2018-Jan-19 16:49N 34°60' E 140°12'511.6
2018-Jan-19 16:24N 34°58' E 140°07'411.3
2018-Jan-19 16:00N 34°55' E 140°02'1211.0
2018-Jan-19 14:55N 34°52' E 139°49'510.7
2018-Jan-19 14:30N 34°51' E 139°43'511.0
2018-Jan-19 14:00N 34°50' E 139°36'711.9
2018-Jan-19 13:25N 34°50' E 139°28'512.3
2018-Jan-19 12:59N 34°49' E 139°22'612.5
2018-Jan-19 12:29N 34°46' E 139°15'712.5
2018-Jan-19 11:55N 34°42' E 139°08'512.3
2018-Jan-19 11:30N 34°39' E 139°03'611.4
2018-Jan-19 11:00N 34°36' E 138°57'612.0
2018-Jan-19 10:30N 34°34' E 138°50'611.7
2018-Jan-19 09:59N 34°34' E 138°43'611.5
2018-Jan-19 09:26N 34°33' E 138°35'511.3
2018-Jan-19 08:57N 34°33' E 138°29'611.4
2018-Jan-19 08:27N 34°33' E 138°22'511.0
2018-Jan-19 07:59N 34°33' E 138°16'510.4
2018-Jan-19 07:29N 34°32' E 138°09'811.9
2018-Jan-19 06:50N 34°32' E 137°60'6311.4
2018-Jan-19 01:19N 34°11' E 136°48'89 9.1
2018-Jan-18 15:32N 33°50' E 135°03'113.3
2018-Jan-18 15:29N 33°50' E 135°03'612.4
2018-Jan-18 15:00N 33°55' E 134°58'612.2
2018-Jan-18 14:30N 33°59' E 134°53'612.1
2018-Jan-18 14:00N 34°04' E 134°48'612.4
2018-Jan-18 13:30N 34°09' E 134°44'612.0
2018-Jan-18 13:00N 34°14' E 134°39'510.9
2018-Jan-18 12:30N 34°18' E 134°35'1 1.3
2018-Jan-18 12:00N 34°18' E 134°34'2 3.0
2018-Jan-18 11:30N 34°18' E 134°36'510.8
2018-Jan-18 11:01N 34°20' E 134°30'611.1
2018-Jan-18 10:30N 34°23' E 134°24'1010.3
2018-Jan-18 09:32N 34°24' E 134°12'110.5
2018-Jan-18 09:27N 34°25' E 134°11'  
2018-Jan-10 15:07N 34°22' E 134°23'111.6
2018-Jan-10 15:00N 34°21' E 134°25'611.6
2018-Jan-10 14:30N 34°19' E 134°31'1611.3
2018-Jan-10 13:05N 34°07' E 134°45'111.1
2018-Jan-10 12:58N 34°06' E 134°46'511.2
2018-Jan-10 12:30N 34°02' E 134°50'711.1
2018-Jan-10 11:54N 33°57' E 134°55'510.5
2018-Jan-10 11:27N 33°53' E 134°58'109 7.6
2018-Jan-09 21:03N 34°39' E 136°58'112.4
2018-Jan-09 21:00N 34°40' E 136°59'912.1
2018-Jan-09 20:16N 34°48' E 136°56'310.7
2018-Jan-09 20:00N 34°51' E 136°57'1 1.0
2018-Jan-09 19:30N 34°51' E 136°56'0 0.0
2018-Jan-09 19:00N 34°51' E 136°56'0 0.0
2018-Jan-09 18:30N 34°51' E 136°56'0 0.0
2018-Jan-09 18:00N 34°51' E 136°56'0 0.0
2018-Jan-09 17:30N 34°51' E 136°56'0 0.0
2018-Jan-09 17:00N 34°51' E 136°56'  

Dump ship's entire track history